Flight Track Log - Related Links

Times and Time Zones

All times are in EDT time to prevent confusion due to time zone crossing. See the RPA3224 flight status page for this flight to view local times or setup timezone preferences in your user account.

Time Position Orientation Groundspeed Altitude Reporting Facility
EDT Latitude Longitude Course Direction KTS MPH feet Rate Location/Type
Sun 07:11:00 AM 26.8221 -80.1271 278° West  Level FlightAware Approximate
Sun 07:11:15 AM 26.6931 -80.2306 326° Northwest 255 293 3,900  Level Miami Center
Sun 07:12:00 AM 26.8496 -80.2492 299° West  Level FlightAware Approximate
Sun 07:12:15 AM 26.7503 -80.2833 321° Northwest 263 303 6,700  Level Miami Center
Sun 07:13:00 AM 26.8990 -80.3412 336° Northwest  Level FlightAware Approximate
Sun 07:13:15 AM 26.8247 -80.3133 340° North 269 310 10,000  Level Miami Center
Sun 07:14:00 AM 27.0032 -80.3932 336° Northwest  Level FlightAware Approximate
Sun 07:14:15 AM 26.9011 -80.3506 337° Northwest 282 325 11,500  Level Miami Center
Sun 07:15:00 AM 27.1073 -80.4453 336° Northwest  Level FlightAware Approximate
Sun 07:15:15 AM 26.9900 -80.3906 338° Northwest 324 373 13,500  Level Miami Center
Sun 07:16:00 AM 27.2041 -80.5114 326° Northwest  Level FlightAware Approximate
Sun 07:16:15 AM 27.0747 -80.4258 340° North 353 406 15,900  Level Miami Center
Sun 07:17:15 AM 27.1719 -80.4661 340° North 360 414 17,800 1,850 Climbing Miami Center
Sun 07:18:15 AM 27.2669 -80.5089 338° Northwest 366 421 19,600 1,700 Climbing Miami Center
Sun 07:19:15 AM 27.3703 -80.5519 340° North 379 436 21,200 1,750 Climbing Miami Center
Sun 07:20:15 AM 27.4756 -80.5950 340° North 390 449 23,100 1,850 Climbing Miami Center
Sun 07:21:15 AM 27.5831 -80.6408 339° North 395 455 24,900 1,500 Climbing Miami Center
Sun 07:22:15 AM 27.6881 -80.6864 339° North 400 460 26,100 1,100 Climbing Miami Center
Sun 07:23:15 AM 27.7997 -80.7322 340° North 411 473 27,100 1,000 Climbing Miami Center
Sun 07:24:15 AM 27.9175 -80.7786 341° North 423 487 28,100 900 Climbing Miami Center
Sun 07:25:15 AM 28.0350 -80.8297 339° North 438 504 28,900 850 Climbing Miami Center
Sun 07:26:15 AM 28.1525 -80.8786 340° North 446 513 29,800 1,103 Climbing Miami Center
Sun 07:28:20 AM 28.4069 -80.9833 340° North 443 510 32,300 973 Climbing Jacksonville Center
Sun 07:29:20 AM 28.5142 -81.0356 337° Northwest 453 521 32,800 700 Climbing Jacksonville Center
Sun 07:30:20 AM 28.6297 -81.0856 339° North 453 521 33,700 950 Climbing Jacksonville Center
Sun 07:31:20 AM 28.7492 -81.1283 343° North 453 521 34,700 650 Climbing Jacksonville Center
Sun 07:32:20 AM 28.8686 -81.1594 347° North 443 510 35,000 150 Climbing Jacksonville Center
Sun 07:33:20 AM 28.9900 -81.1883 348° North 438 504 35,000  Level Jacksonville Center
Sun 07:34:20 AM 29.1136 -81.2147 349° North 438 504 35,000  Level Jacksonville Center
Sun 07:35:20 AM 29.2331 -81.2436 348° North 438 504 35,000  Level Jacksonville Center
Sun 07:36:20 AM 29.3564 -81.2725 348° North 438 504 35,000  Level Jacksonville Center
Sun 07:37:20 AM 29.4842 -81.3061 347° North 431 496 35,000  Level Jacksonville Center
Sun 07:38:20 AM 29.6036 -81.3328 349° North 431 496 35,000  Level Jacksonville Center
Sun 07:39:20 AM 29.7250 -81.3644 347° North 431 496 35,000  Level Jacksonville Center
Sun 07:40:20 AM 29.8464 -81.3936 348° North 436 502 35,000  Level Jacksonville Center
Sun 07:41:20 AM 29.9658 -81.4206 349° North 436 502 35,000  Level Jacksonville Center
Sun 07:42:20 AM 30.0850 -81.4497 348° North 436 502 35,000  Level Jacksonville Center
Sun 07:43:20 AM 30.2064 -81.4769 349° North 431 496 35,000  Level Jacksonville Center
Sun 07:44:20 AM 30.3278 -81.5039 349° North 431 496 35,000  Level Jacksonville Center
Sun 07:45:20 AM 30.4531 -81.5022 North 431 496 35,000  Level Jacksonville Center
Sun 07:46:20 AM 30.5803 -81.4931 North 442 509 35,000  Level Jacksonville Center
Sun 07:47:20 AM 30.7097 -81.4814 North 454 522 35,000  Level Jacksonville Center
Sun 07:48:20 AM 30.8347 -81.4700 North 454 522 35,000  Level Jacksonville Center
Sun 07:49:20 AM 30.9622 -81.4608 North 454 522 35,000  Level Jacksonville Center
Sun 07:50:20 AM 31.0894 -81.4492 North 459 528 35,000  Level Jacksonville Center
Sun 07:51:20 AM 31.2186 -81.4422 North 459 528 35,000  Level Jacksonville Center
Sun 07:52:20 AM 31.3478 -81.4111 12° North 465 535 35,000  Level Jacksonville Center
Sun 07:53:20 AM 31.4747 -81.3775 13° North 465 535 35,000  Level Jacksonville Center
Sun 07:54:20 AM 31.5997 -81.3436 13° North 472 543 35,000  Level Jacksonville Center
Sun 07:55:20 AM 31.7203 -81.3147 12° North 472 543 35,000  Level Jacksonville Center
Sun 07:56:20 AM 31.8578 -81.2758 14° North 469 540 35,000  Level Jacksonville Center
Sun 07:57:20 AM 31.9764 -81.2442 13° North 475 547 35,000  Level Jacksonville Center
Sun 07:58:20 AM 32.1053 -81.2078 13° North 475 547 35,000  Level Jacksonville Center
Sun 07:59:20 AM 32.2103 -81.1100 38° Northeast 469 540 35,000  Level Jacksonville Center
Sun 08:00:20 AM 32.3042 -80.9606 53° Northeast 495 570 35,000  Level Jacksonville Center
Sun 08:01:20 AM 32.3897 -80.8283 53° Northeast 502 578 35,000  Level Jacksonville Center
Sun 08:02:20 AM 32.4650 -80.7086 53° Northeast 502 578 35,000  Level Jacksonville Center
Sun 08:03:20 AM 32.5503 -80.5758 53° Northeast 507 583 35,000  Level Jacksonville Center
Sun 08:04:20 AM 32.6356 -80.4456 52° Northeast 507 583 35,000  Level Jacksonville Center
Sun 08:05:20 AM 32.7206 -80.3072 54° Northeast 507 583 35,000  Level Jacksonville Center
Sun 08:06:20 AM 32.8156 -80.1589 53° Northeast 512 589 35,000  Level Jacksonville Center
Sun 08:07:20 AM 32.9086 -80.0347 48° Northeast 512 589 35,000  Level Jacksonville Center
Sun 08:08:20 AM 33.0303 -79.9589 28° Northeast 491 565 35,000  Level Jacksonville Center
Sun 08:09:20 AM 33.1558 -79.8903 25° Northeast 485 558 35,000  Level Jacksonville Center
Sun 08:10:20 AM 33.2794 -79.8217 25° Northeast 479 551 35,000  Level Jacksonville Center
Sun 08:11:20 AM 33.4050 -79.7525 25° Northeast 479 551 35,000  Level Jacksonville Center
Sun 08:12:20 AM 33.5306 -79.6833 25° Northeast 485 558 35,000  Level Jacksonville Center
Sun 08:13:20 AM 33.6519 -79.6117 26° Northeast 485 558 35,000  Level Jacksonville Center
Sun 08:14:20 AM 33.7772 -79.5419 25° Northeast 485 558 35,000  Level Jacksonville Center
Sun 08:15:20 AM 33.9028 -79.4747 24° Northeast 485 558 35,000  Level Jacksonville Center
Sun 08:16:52 AM 34.0786 -79.3728 26° Northeast 494 568 35,000  Level Washington Center
Sun 08:17:52 AM 34.2017 -79.3056 24° Northeast 494 568 35,000  Level Washington Center
Sun 08:18:52 AM 34.3381 -79.2211 27° Northeast 494 568 35,000  Level Washington Center
Sun 08:19:52 AM 34.4631 -79.1511 25° Northeast 494 568 35,000  Level Washington Center
Sun 08:20:52 AM 34.5861 -79.0808 25° Northeast 494 568 35,000  Level Washington Center
Sun 08:21:52 AM 34.7114 -79.0078 26° Northeast 494 568 35,000  Level Washington Center
Sun 08:22:52 AM 34.8367 -78.9347 26° Northeast 489 563 35,000  Level Washington Center
Sun 08:23:52 AM 34.9594 -78.8636 25° Northeast 489 563 35,000  Level Washington Center
Sun 08:24:52 AM 35.0825 -78.7900 26° Northeast 489 563 35,000  Level Washington Center
Sun 08:25:52 AM 35.2075 -78.7189 25° Northeast 494 568 35,000 -50 Level Washington Center
Sun 08:26:52 AM 35.3306 -78.6447 26° Northeast 494 568 34,900 -300 Descending Washington Center
Sun 08:27:52 AM 35.4575 -78.5728 25° Northeast 495 570 34,400 -500 Descending Washington Center
Sun 08:28:52 AM 35.5761 -78.4983 27° Northeast 489 563 33,900 -500 Descending Washington Center
Sun 08:29:52 AM 35.6906 -78.4333 25° Northeast 489 563 33,400 -450 Descending Washington Center
Sun 08:30:52 AM 35.8111 -78.3608 26° Northeast 484 557 33,000 -450 Descending Washington Center
Sun 08:31:52 AM 35.9358 -78.2856 26° Northeast 484 557 32,500 -750 Descending Washington Center
Sun 08:32:52 AM 36.0586 -78.2103 26° Northeast 484 557 31,500 -1,500 Descending Washington Center
Sun 08:33:52 AM 36.1856 -78.1344 26° Northeast 489 563 29,500 -2,150 Descending Washington Center
Sun 08:34:52 AM 36.3081 -78.0614 26° Northeast 489 563 27,200 -1,250 Descending Washington Center
Sun 08:35:52 AM 36.4389 -77.9828 26° Northeast 489 563 27,000 -100 Descending Washington Center
Sun 08:36:52 AM 36.5614 -77.9064 27° Northeast 484 557 27,000  Level Washington Center
Sun 08:37:52 AM 36.6861 -77.8297 26° Northeast 484 557 27,000  Level Washington Center
Sun 08:38:52 AM 36.8064 -77.7553 26° Northeast 484 557 27,000 -550 Level Washington Center
Sun 08:39:52 AM 36.9286 -77.6783 27° Northeast 484 557 25,900 -1,000 Descending Washington Center
Sun 08:40:52 AM 37.0447 -77.6058 26° Northeast 478 550 25,000 -450 Descending Washington Center
Sun 08:41:52 AM 37.1542 -77.5383 26° Northeast 455 524 25,000 -50 Level Washington Center
Sun 08:42:52 AM 37.2639 -77.4708 26° Northeast 441 507 24,900 -800 Descending Washington Center
Sun 08:43:52 AM 37.3692 -77.4028 27° Northeast 424 488 23,400 -1,450 Descending Washington Center
Sun 08:44:52 AM 37.4722 -77.3397 26° Northeast 419 482 22,000 -950 Descending Washington Center
Sun 08:45:52 AM 37.5811 -77.3056 14° North 413 475 21,500 -1,050 Descending Washington Center
Sun 08:46:52 AM 37.6858 -77.2817 10° North 395 455 19,900 -1,650 Descending Washington Center
Sun 08:47:52 AM 37.7883 -77.2603 North 383 441 18,200 -1,400 Descending Washington Center
Sun 08:48:52 AM 37.8908 -77.2389 North 370 426 17,100 -1,550 Descending Washington Center
Sun 08:49:52 AM 37.9911 -77.2175 10° North 370 426 15,100 -1,850 Descending Washington Center
Sun 08:50:52 AM 38.0875 -77.2011 North 365 420 13,400 -1,800 Descending Washington Center
Sun 08:51:52 AM 38.1814 -77.1819 North 358 412 11,500 -1,700 Descending Washington Center
Sun 08:52:52 AM 38.2714 -77.1600 11° North 338 389 10,000 -750 Descending Washington Center
Sun 08:53:52 AM 38.3364 -77.1456 10° North 296 341 10,000 -300 Level Washington Center
Sun 08:54:52 AM 38.4097 -77.1100 21° North 255 293 9,400 -1,000 Descending Washington Center
Sun 08:55:52 AM 38.4417 -77.0603 51° Northeast 232 267 8,000 -1,400 Descending Washington Center
Sun 08:56:52 AM 38.4900 -77.0161 36° Northeast 216 249 6,600 -1,200 Descending Washington Center
Sun 08:57:52 AM 38.5378 -77.0275 349° North 175 201 5,600 -1,200 Descending Washington Center
Sun 08:58:52 AM 38.5814 -77.0497 338° Northwest 165 190 4,200 -1,250 Descending Washington Center
Sun 08:59:52 AM 38.6294 -77.0481 North 165 190 3,100 -962 Descending Washington Center
Sun 09:00:38 AM 38.6833 -77.0333 12° North 180 207 2,500 -396 Descending Potomac TRACON
Sun 09:01:38 AM 38.7167 -77.0333 360° North 167 192 2,400 -381 Descending Potomac TRACON
Sun 09:02:44 AM 38.7667 -77.0333 360° North 144 166 1,700 -636 Descending Potomac TRACON

Login

Don't have an account? Register now (free) for customized features, flight alerts, and more!